Time;durP1;ratioP1;P1;durP2;ratioP2;P2;SDS_P1;SDS_P2;PMS_P1;PMS_P2;Temp;Humidity;BMP_temperature;BMP_pressure;BME280_temperature;BME280_humidity;BME280_pressure;Samples;Min_cycle;Max_cycle;Signal;HPM_P1;HPM_P2
2021/08/15 00:00:10;;;;;;;100.28;68.40;;;;;;;;;;5290237;27;20365;-85
2021/08/15 00:02:39;;;;;;;104.20;68.85;;;;;;;;;;5290128;27;20037;-84
2021/08/15 00:05:08;;;;;;;96.72;67.75;;;;;;;;;;5287696;27;20071;-85
2021/08/15 00:07:37;;;;;;;107.45;65.75;;;;;;;;;;5289782;27;20440;-85
2021/08/15 00:10:07;;;;;;;106.25;70.53;;;;;;;;;;5291137;27;20017;-85
2021/08/15 00:12:36;;;;;;;103.75;68.97;;;;;;;;;;5292256;27;21180;-85
2021/08/15 00:15:06;;;;;;;96.07;67.57;;;;;;;;;;5293487;27;20010;-85
2021/08/15 00:17:35;;;;;;;90.78;66.82;;;;;;;;;;5291602;27;20608;-85
2021/08/15 00:20:04;;;;;;;99.13;66.25;;;;;;;;;;5286934;27;20045;-85
2021/08/15 00:22:32;;;;;;;94.18;66.75;;;;;;;;;;5286911;27;20045;-85
2021/08/15 00:25:01;;;;;;;106.82;67.87;;;;;;;;;;5286721;27;20728;-85
2021/08/15 00:27:29;;;;;;;96.85;65.68;;;;;;;;;;5288033;27;20063;-85
2021/08/15 00:30:00;;;;;;;110.85;68.18;;;;;;;;;;5287699;27;20044;-85
2021/08/15 00:32:28;;;;;;;102.87;73.25;;;;;;;;;;5288295;27;20029;-86
2021/08/15 00:34:57;;;;;;;114.37;71.90;;;;;;;;;;5289315;27;20061;-84
2021/08/15 00:37:25;;;;;;;94.20;71.35;;;;;;;;;;5287121;27;20029;-85
2021/08/15 00:39:54;;;;;;;111.20;70.72;;;;;;;;;;5289793;27;20920;-86
2021/08/15 00:42:23;;;;;;;105.30;70.22;;;;;;;;;;5288565;27;20167;-86
2021/08/15 00:44:52;;;;;;;105.30;71.28;;;;;;;;;;5288797;27;20029;-86
2021/08/15 00:47:21;;;;;;;97.50;69.37;;;;;;;;;;5289486;27;20049;-86
2021/08/15 00:49:50;;;;;;;96.82;70.55;;;;;;;;;;5269110;27;20066;-86
2021/08/15 00:52:18;;;;;;;101.00;69.97;;;;;;;;;;5267059;27;20053;-85
2021/08/15 00:54:47;;;;;;;98.07;69.32;;;;;;;;;;5289253;27;20065;-85
2021/08/15 00:57:15;;;;;;;112.22;74.57;;;;;;;;;;5288413;27;20523;-84
2021/08/15 00:59:43;;;;;;;109.25;73.55;;;;;;;;;;5289467;27;20025;-85
2021/08/15 01:02:12;;;;;;;108.37;78.10;;;;;;;;;;5287001;27;20104;-85
2021/08/15 01:04:41;;;;;;;99.80;73.57;;;;;;;;;;5286905;27;20014;-85
2021/08/15 01:07:09;;;;;;;115.75;74.03;;;;;;;;;;5288611;27;20067;-84
2021/08/15 01:09:40;;;;;;;107.00;70.12;;;;;;;;;;5271000;27;20063;-86
2021/08/15 01:12:09;;;;;;;173.82;156.98;;;;;;;;;;5286088;27;20034;-85
2021/08/15 01:14:38;;;;;;;174.07;156.25;;;;;;;;;;5288458;27;20660;-85
2021/08/15 01:17:06;;;;;;;177.73;159.73;;;;;;;;;;5289421;27;20021;-86
2021/08/15 01:19:34;;;;;;;176.75;159.43;;;;;;;;;;5290111;27;20108;-85
2021/08/15 01:22:03;;;;;;;181.02;162.32;;;;;;;;;;5291606;27;20037;-85
2021/08/15 01:24:32;;;;;;;181.32;163.40;;;;;;;;;;5290512;27;20071;-85
2021/08/15 01:27:21;;;;;;;177.35;159.68;;;;;;;;;;5274635;27;20048;-84
2021/08/15 01:29:50;;;;;;;178.27;160.85;;;;;;;;;;5291398;27;20055;-84
2021/08/15 01:32:20;;;;;;;181.75;164.48;;;;;;;;;;5291671;27;20022;-85
2021/08/15 01:34:49;;;;;;;182.07;164.68;;;;;;;;;;5290364;27;20099;-85
2021/08/15 01:37:21;;;;;;;177.60;159.65;;;;;;;;;;5293065;27;20068;-86
2021/08/15 01:39:49;;;;;;;176.98;160.43;;;;;;;;;;5289561;27;20039;-85
2021/08/15 01:42:18;;;;;;;175.20;158.27;;;;;;;;;;5289893;27;20046;-85
2021/08/15 01:44:46;;;;;;;177.43;160.75;;;;;;;;;;5291665;27;20037;-84
2021/08/15 01:47:15;;;;;;;176.50;159.23;;;;;;;;;;5290273;27;20506;-85
2021/08/15 01:49:44;;;;;;;181.77;164.70;;;;;;;;;;5286304;27;20866;-85
2021/08/15 01:52:12;;;;;;;184.07;166.40;;;;;;;;;;5267334;27;21007;-85
2021/08/15 01:54:41;;;;;;;178.12;161.27;;;;;;;;;;5286909;27;20053;-85
2021/08/15 01:57:09;;;;;;;176.48;159.07;;;;;;;;;;5291549;27;20025;-86
2021/08/15 01:59:38;;;;;;;178.52;161.05;;;;;;;;;;5289921;27;20826;-85
2021/08/15 02:02:07;;;;;;;178.02;161.48;;;;;;;;;;5290686;27;20075;-85
2021/08/15 02:04:36;;;;;;;183.20;165.37;;;;;;;;;;5288388;27;20102;-85
2021/08/15 02:07:05;;;;;;;179.48;162.68;;;;;;;;;;5287832;27;20049;-85
2021/08/15 02:09:33;;;;;;;174.65;156.73;;;;;;;;;;5287519;27;20082;-85
2021/08/15 02:12:02;;;;;;;177.93;159.95;;;;;;;;;;5289468;27;20029;-86
2021/08/15 02:14:31;;;;;;;177.90;160.68;;;;;;;;;;5270880;27;20432;-85
2021/08/15 02:17:00;;;;;;;181.73;163.27;;;;;;;;;;5272318;27;20048;-85
2021/08/15 02:19:29;;;;;;;181.63;164.43;;;;;;;;;;5290476;27;20398;-85
2021/08/15 02:21:57;;;;;;;178.93;161.27;;;;;;;;;;5289721;27;20366;-85
2021/08/15 02:24:28;;;;;;;114.45;97.97;;;;;;;;;;5285863;27;20111;-85
2021/08/15 02:26:56;;;;;;;109.15;97.97;;;;;;;;;;5289529;27;20056;-85
2021/08/15 02:29:25;;;;;;;110.85;99.07;;;;;;;;;;5269785;27;20071;-85
2021/08/15 02:31:53;;;;;;;174.73;157.52;;;;;;;;;;5293314;27;20025;-84
2021/08/15 02:34:24;;;;;;;179.95;163.15;;;;;;;;;;5289030;27;20200;-85
2021/08/15 02:36:53;;;;;;;185.25;167.25;;;;;;;;;;5291580;27;20580;-85
2021/08/15 02:39:21;;;;;;;182.00;164.60;;;;;;;;;;5292342;27;20035;-84
2021/08/15 02:41:50;;;;;;;185.18;167.23;;;;;;;;;;5293741;27;20028;-84
2021/08/15 02:44:18;;;;;;;180.68;164.27;;;;;;;;;;5291339;27;20071;-85
2021/08/15 02:46:47;;;;;;;183.00;163.85;;;;;;;;;;5292670;27;20025;-84
2021/08/15 02:49:15;;;;;;;174.62;157.00;;;;;;;;;;5292011;27;20055;-84
2021/08/15 02:51:43;;;;;;;169.95;153.95;;;;;;;;;;5292491;27;20057;-85
2021/08/15 02:54:12;;;;;;;168.80;152.38;;;;;;;;;;5291439;27;20056;-85
2021/08/15 02:56:40;;;;;;;179.32;157.23;;;;;;;;;;5292452;27;20041;-85
2021/08/15 02:59:10;;;;;;;174.73;156.93;;;;;;;;;;5293749;27;20017;-85
2021/08/15 03:01:39;;;;;;;168.27;152.85;;;;;;;;;;5292205;27;20060;-85
2021/08/15 03:04:07;;;;;;;170.00;153.07;;;;;;;;;;5291327;27;20049;-85
2021/08/15 03:06:36;;;;;;;170.30;152.43;;;;;;;;;;5292478;27;20344;-85
2021/08/15 03:09:05;;;;;;;172.20;153.70;;;;;;;;;;5292910;27;20063;-85
2021/08/15 08:36:02;;;;;;;312.35;56.25;;;;;;;;;;5247312;27;20053;-83
2021/08/15 08:38:30;;;;;;;121.85;54.85;;;;;;;;;;5247642;27;20049;-83
2021/08/15 08:40:59;;;;;;;178.90;54.80;;;;;;;;;;5245288;27;21035;-84
2021/08/15 08:43:27;;;;;;;88.78;54.33;;;;;;;;;;5249419;27;20041;-85
2021/08/15 08:45:56;;;;;;;196.48;57.58;;;;;;;;;;5244784;27;20045;-84
2021/08/15 08:48:24;;;;;;;286.87;58.92;;;;;;;;;;5245684;27;20034;-84
2021/08/15 08:50:53;;;;;;;171.25;54.55;;;;;;;;;;5246035;27;20502;-84
2021/08/15 08:56:04;;;;;;;71.18;52.33;;;;;;;;;;5250675;27;20087;-83
2021/08/15 08:58:32;;;;;;;72.05;51.75;;;;;;;;;;5246904;27;20070;-84
2021/08/15 09:01:00;;;;;;;126.10;54.25;;;;;;;;;;5247820;27;20565;-83
2021/08/15 09:03:30;;;;;;;195.77;62.03;;;;;;;;;;5245130;27;20067;-83
2021/08/15 09:05:58;;;;;;;171.43;55.30;;;;;;;;;;5245925;27;20020;-84
2021/08/15 09:08:28;;;;;;;246.48;56.85;;;;;;;;;;5246382;27;20440;-84
2021/08/15 09:11:13;;;;;;;113.15;52.70;;;;;;;;;;5246531;27;20026;-84
2021/08/15 09:13:42;;;;;;;121.25;52.95;;;;;;;;;;5245142;27;20049;-84
2021/08/15 09:16:11;;;;;;;181.12;59.42;;;;;;;;;;5245909;27;20076;-84
2021/08/15 09:18:39;;;;;;;81.40;56.50;;;;;;;;;;5245810;27;20048;-84
2021/08/15 09:21:11;;;;;;;91.85;57.55;;;;;;;;;;5248534;27;20049;-84
2021/08/15 09:23:40;;;;;;;109.20;57.58;;;;;;;;;;5250119;27;20037;-84
2021/08/15 09:26:11;;;;;;;103.18;57.80;;;;;;;;;;5248919;27;20790;-84
2021/08/15 09:28:40;;;;;;;100.68;59.80;;;;;;;;;;5247163;27;20448;-84
2021/08/15 09:31:20;;;;;;;96.95;58.40;;;;;;;;;;5245146;27;20701;-83
2021/08/15 09:33:48;;;;;;;84.65;58.80;;;;;;;;;;5248232;27;20027;-84
2021/08/15 09:36:30;;;;;;;200.80;63.25;;;;;;;;;;5269708;27;20013;-83
2021/08/15 09:39:01;;;;;;;120.05;65.00;;;;;;;;;;5267982;27;20576;-84
2021/08/15 09:41:40;;;;;;;77.70;63.20;;;;;;;;;;5269975;27;20069;-83
2021/08/15 09:44:17;;;;;;;86.87;64.90;;;;;;;;;;5252901;27;20026;-84
2021/08/15 09:46:58;;;;;;;83.65;64.97;;;;;;;;;;5269774;27;20037;-84
2021/08/15 09:49:37;;;;;;;101.62;69.43;;;;;;;;;;5269665;27;20045;-84
2021/08/15 09:52:07;;;;;;;97.28;71.07;;;;;;;;;;5249288;27;20620;-83
2021/08/15 09:54:38;;;;;;;105.97;75.95;;;;;;;;;;5266693;27;20495;-84
2021/08/15 09:57:08;;;;;;;121.95;80.78;;;;;;;;;;5267252;27;20017;-84
2021/08/15 09:59:38;;;;;;;135.85;81.80;;;;;;;;;;5250148;27;20373;-84
2021/08/15 10:02:07;;;;;;;138.60;82.72;;;;;;;;;;5270574;27;20443;-84
2021/08/15 10:04:38;;;;;;;123.68;80.38;;;;;;;;;;5270066;27;20026;-83
2021/08/15 10:07:07;;;;;;;117.00;79.43;;;;;;;;;;5269502;27;20088;-84
2021/08/15 10:09:35;;;;;;;125.55;81.85;;;;;;;;;;5273581;27;20018;-84
2021/08/15 10:12:04;;;;;;;147.52;89.95;;;;;;;;;;5270710;27;20095;-84
2021/08/15 10:14:32;;;;;;;151.07;93.28;;;;;;;;;;5268637;27;20089;-84
2021/08/15 10:17:02;;;;;;;122.72;88.85;;;;;;;;;;5266752;27;20542;-84
2021/08/15 10:19:45;;;;;;;123.62;89.53;;;;;;;;;;5264862;27;20036;-85
2021/08/15 10:22:23;;;;;;;142.48;108.15;;;;;;;;;;5265574;27;20090;-85
2021/08/15 10:24:53;;;;;;;173.35;129.82;;;;;;;;;;5270291;27;20057;-85
2021/08/15 10:27:40;;;;;;;193.48;172.50;;;;;;;;;;5266894;27;20037;-86
2021/08/15 10:30:09;;;;;;;432.52;388.12;;;;;;;;;;5267332;27;20046;-86
2021/08/15 10:32:37;;;;;;;341.35;314.30;;;;;;;;;;5250649;27;20534;-86
2021/08/15 10:35:15;;;;;;;15.30;5.68;;;;;;;;;;5268847;27;20041;-84
2021/08/15 10:37:44;;;;;;;20.65;6.75;;;;;;;;;;5272434;27;20062;-86
2021/08/15 10:40:33;;;;;;;17.67;6.32;;;;;;;;;;5272396;27;20050;-85
2021/08/15 10:43:01;;;;;;;18.85;5.90;;;;;;;;;;5272228;27;20054;-85
2021/08/15 10:45:30;;;;;;;14.50;5.65;;;;;;;;;;5269326;27;20059;-86
2021/08/15 10:48:13;;;;;;;19.10;6.22;;;;;;;;;;5271694;27;20017;-86
2021/08/15 10:50:46;;;;;;;17.02;5.82;;;;;;;;;;5270105;27;20053;-86
2021/08/15 10:53:29;;;;;;;14.38;5.25;;;;;;;;;;5267421;27;20391;-86
2021/08/15 10:56:02;;;;;;;16.12;6.62;;;;;;;;;;5266801;27;20079;-86
2021/08/15 10:58:44;;;;;;;16.93;5.13;;;;;;;;;;5270533;27;20014;-86
2021/08/15 11:01:17;;;;;;;14.57;5.40;;;;;;;;;;5269825;27;20053;-86
2021/08/15 11:03:48;;;;;;;17.08;5.82;;;;;;;;;;5274056;27;20014;-86
2021/08/15 11:06:33;;;;;;;16.27;5.75;;;;;;;;;;5267280;27;20268;-86
2021/08/15 11:09:02;;;;;;;12.02;4.70;;;;;;;;;;5271782;27;20359;-86
2021/08/15 11:11:36;;;;;;;14.40;5.70;;;;;;;;;;5272232;27;20028;-86
2021/08/15 11:14:24;;;;;;;14.75;4.70;;;;;;;;;;5270231;27;20342;-86
2021/08/15 11:16:57;;;;;;;18.12;5.95;;;;;;;;;;5273689;27;20052;-86
2021/08/15 11:19:27;;;;;;;15.73;5.53;;;;;;;;;;5274726;27;20010;-86
2021/08/15 11:22:05;;;;;;;13.70;5.15;;;;;;;;;;5269907;27;20446;-85
2021/08/15 11:24:45;;;;;;;17.58;5.68;;;;;;;;;;5273415;27;20439;-86
2021/08/15 11:27:23;;;;;;;14.90;5.57;;;;;;;;;;5271389;27;20057;-86
2021/08/15 11:29:52;;;;;;;17.20;5.37;;;;;;;;;;5269577;27;20023;-86
2021/08/15 11:32:29;;;;;;;15.57;5.40;;;;;;;;;;5270581;27;20037;-86
2021/08/15 11:34:59;;;;;;;14.98;5.50;;;;;;;;;;5270652;27;20372;-85
2021/08/15 11:37:29;;;;;;;16.10;5.95;;;;;;;;;;5270739;27;20021;-85
2021/08/15 11:40:09;;;;;;;18.65;5.78;;;;;;;;;;5270807;27;20026;-86
2021/08/15 11:42:38;;;;;;;14.02;4.95;;;;;;;;;;5270471;27;20542;-87
2021/08/15 11:45:07;;;;;;;11.90;4.68;;;;;;;;;;5270016;27;20037;-85
2021/08/15 11:47:36;;;;;;;9.30;4.45;;;;;;;;;;5270029;27;20044;-86
2021/08/15 11:50:16;;;;;;;11.43;4.47;;;;;;;;;;5269502;27;20052;-86
2021/08/15 11:52:45;;;;;;;18.85;5.45;;;;;;;;;;5272175;27;20057;-86
2021/08/15 11:55:22;;;;;;;13.43;5.22;;;;;;;;;;5270504;27;20083;-85
2021/08/15 11:57:51;;;;;;;12.27;4.65;;;;;;;;;;5274227;27;20048;-86
2021/08/15 12:00:26;;;;;;;12.45;5.35;;;;;;;;;;5251246;27;20049;-86
2021/08/15 12:03:04;;;;;;;19.60;5.45;;;;;;;;;;5268442;27;20462;-86
2021/08/15 12:05:35;;;;;;;12.55;5.40;;;;;;;;;;5252850;27;20047;-86
2021/08/15 12:08:05;;;;;;;14.10;5.53;;;;;;;;;;5273547;27;20102;-86
2021/08/15 12:10:54;;;;;;;21.98;6.28;;;;;;;;;;5271131;27;20053;-86
2021/08/15 12:13:38;;;;;;;17.62;5.10;;;;;;;;;;5248848;27;20052;-86
2021/08/15 12:16:08;;;;;;;16.65;5.87;;;;;;;;;;5272386;27;20016;-87
2021/08/15 12:18:39;;;;;;;13.62;5.12;;;;;;;;;;5271542;27;20041;-86
2021/08/15 12:21:17;;;;;;;18.30;6.00;;;;;;;;;;5272738;27;20013;-85
2021/08/15 12:24:12;;;;;;;16.70;5.53;;;;;;;;;;5263428;27;20706;-86
2021/08/15 12:26:45;;;;;;;17.30;5.15;;;;;;;;;;5266120;27;20375;-86
2021/08/15 12:32:04;;;;;;;19.87;6.00;;;;;;;;;;5261927;27;20049;-86
2021/08/15 12:34:53;;;;;;;17.90;6.10;;;;;;;;;;5258368;27;20052;-86
2021/08/15 12:37:24;;;;;;;13.43;5.28;;;;;;;;;;5240078;27;20056;-85
2021/08/15 12:40:16;;;;;;;19.12;5.97;;;;;;;;;;5268716;27;20025;-85
2021/08/15 12:42:54;;;;;;;20.70;6.25;;;;;;;;;;5250386;27;20713;-86
2021/08/15 12:45:33;;;;;;;19.48;5.80;;;;;;;;;;5269556;27;20038;-85
2021/08/15 12:48:03;;;;;;;17.10;5.55;;;;;;;;;;5268048;27;20049;-85
2021/08/15 12:50:32;;;;;;;21.70;5.95;;;;;;;;;;5269805;27;20026;-85
2021/08/15 12:53:04;;;;;;;18.27;5.75;;;;;;;;;;5271092;27;20021;-85
2021/08/15 12:55:37;;;;;;;29.02;6.30;;;;;;;;;;5271250;27;20030;-86
2021/08/15 12:58:07;;;;;;;15.17;5.90;;;;;;;;;;5268161;27;20041;-85
2021/08/15 13:00:40;;;;;;;19.73;6.00;;;;;;;;;;5271819;27;20491;-86
2021/08/15 13:03:09;;;;;;;16.00;5.47;;;;;;;;;;5270207;27;20755;-85
2021/08/15 13:05:40;;;;;;;18.70;5.80;;;;;;;;;;5271252;27;20033;-85
2021/08/15 13:08:09;;;;;;;20.92;6.07;;;;;;;;;;5271234;27;20022;-85
2021/08/15 13:10:38;;;;;;;27.05;6.05;;;;;;;;;;5270216;27;20045;-85
2021/08/15 13:13:06;;;;;;;20.08;6.25;;;;;;;;;;5267612;27;20425;-85
2021/08/15 13:15:35;;;;;;;18.83;6.20;;;;;;;;;;5268970;27;20072;-85
2021/08/15 13:18:04;;;;;;;18.87;6.35;;;;;;;;;;5246816;27;20087;-85
2021/08/15 13:20:33;;;;;;;21.02;6.60;;;;;;;;;;5233619;27;20041;-85
2021/08/15 13:23:02;;;;;;;21.62;6.45;;;;;;;;;;5269213;27;20013;-85
2021/08/15 13:25:31;;;;;;;19.90;6.20;;;;;;;;;;5270882;27;20109;-85
2021/08/15 13:28:00;;;;;;;22.65;6.32;;;;;;;;;;5272728;27;20373;-85
2021/08/15 13:30:30;;;;;;;18.75;5.95;;;;;;;;;;5273501;27;20019;-85
2021/08/15 13:33:01;;;;;;;18.05;6.05;;;;;;;;;;5271887;27;20041;-84
2021/08/15 13:35:30;;;;;;;24.27;6.18;;;;;;;;;;5271576;27;20064;-85
2021/08/15 13:37:59;;;;;;;22.10;6.87;;;;;;;;;;5273354;27;20059;-85
2021/08/15 13:40:28;;;;;;;25.62;6.80;;;;;;;;;;5272192;27;20018;-85
2021/08/15 13:42:57;;;;;;;25.73;6.62;;;;;;;;;;5268982;27;20481;-85
2021/08/15 13:45:26;;;;;;;17.27;6.05;;;;;;;;;;5271605;27;20040;-85
2021/08/15 13:47:55;;;;;;;19.58;5.85;;;;;;;;;;5273230;27;20028;-85
2021/08/15 13:50:25;;;;;;;31.20;6.87;;;;;;;;;;5272613;27;20053;-85
2021/08/15 13:52:54;;;;;;;21.35;6.45;;;;;;;;;;5269510;27;20677;-85
2021/08/15 13:55:23;;;;;;;23.83;7.20;;;;;;;;;;5271355;27;20357;-85
2021/08/15 13:57:52;;;;;;;21.87;6.60;;;;;;;;;;5269341;27;20038;-85
2021/08/15 14:00:20;;;;;;;23.73;7.03;;;;;;;;;;5269315;27;20416;-85
2021/08/15 14:02:49;;;;;;;16.80;6.15;;;;;;;;;;5267449;27;20056;-85
2021/08/15 14:05:17;;;;;;;24.63;6.70;;;;;;;;;;5268857;27;20522;-86
2021/08/15 14:07:46;;;;;;;26.58;7.32;;;;;;;;;;5270943;27;20069;-85
2021/08/15 14:10:15;;;;;;;23.60;6.70;;;;;;;;;;5271716;27;20204;-84
2021/08/15 14:12:43;;;;;;;19.42;6.87;;;;;;;;;;5271959;27;20026;-85
2021/08/15 14:15:12;;;;;;;19.35;6.72;;;;;;;;;;5271473;27;20054;-85
2021/08/15 14:17:43;;;;;;;24.05;6.87;;;;;;;;;;5268042;27;20038;-84
2021/08/15 14:20:13;;;;;;;20.35;6.32;;;;;;;;;;5271920;27;20026;-85
2021/08/15 14:22:43;;;;;;;20.60;6.12;;;;;;;;;;5273275;27;20082;-85
2021/08/15 14:25:13;;;;;;;19.33;5.87;;;;;;;;;;5272264;27;20026;-85
2021/08/15 14:27:41;;;;;;;23.42;6.80;;;;;;;;;;5252940;27;20018;-85
2021/08/15 14:30:11;;;;;;;20.27;6.87;;;;;;;;;;5271527;27;20038;-85
2021/08/15 14:32:41;;;;;;;17.12;6.18;;;;;;;;;;5272952;27;20018;-84
2021/08/15 14:35:12;;;;;;;22.02;6.00;;;;;;;;;;5267348;27;20050;-85
2021/08/15 14:37:42;;;;;;;22.08;6.68;;;;;;;;;;5264870;27;20124;-85
2021/08/15 14:40:11;;;;;;;23.92;6.35;;;;;;;;;;5266870;27;20025;-85
2021/08/15 14:42:45;;;;;;;22.65;7.28;;;;;;;;;;5269523;27;20033;-85
2021/08/15 14:45:14;;;;;;;20.00;6.75;;;;;;;;;;5266995;27;20124;-85
2021/08/15 14:47:43;;;;;;;28.15;7.78;;;;;;;;;;5267993;27;20063;-85
2021/08/15 14:50:12;;;;;;;23.62;6.50;;;;;;;;;;5268683;27;20025;-85
2021/08/15 14:52:40;;;;;;;24.48;7.18;;;;;;;;;;5266253;27;20021;-86
2021/08/15 14:55:09;;;;;;;21.67;6.70;;;;;;;;;;5266023;27;20087;-85
2021/08/15 14:57:38;;;;;;;24.30;6.40;;;;;;;;;;5266129;27;20033;-85
2021/08/15 15:00:06;;;;;;;25.15;7.12;;;;;;;;;;5265297;27;20370;-85
2021/08/15 15:02:35;;;;;;;23.48;7.12;;;;;;;;;;5267013;27;20059;-85
2021/08/15 15:05:05;;;;;;;25.05;6.87;;;;;;;;;;5266852;27;20127;-85
2021/08/15 15:07:33;;;;;;;26.50;7.25;;;;;;;;;;5246601;27;20044;-84
2021/08/15 15:10:03;;;;;;;22.15;6.68;;;;;;;;;;5248588;27;20111;-84
2021/08/15 15:12:35;;;;;;;28.60;7.37;;;;;;;;;;5267935;27;20048;-85
2021/08/15 15:15:05;;;;;;;20.67;7.12;;;;;;;;;;5267186;27;20328;-86
2021/08/15 15:17:34;;;;;;;21.33;6.22;;;;;;;;;;5268444;27;21005;-85
2021/08/15 15:20:04;;;;;;;20.52;6.97;;;;;;;;;;5247866;27;20367;-85
2021/08/15 15:22:33;;;;;;;22.65;6.93;;;;;;;;;;5267238;27;20037;-85
2021/08/15 15:25:01;;;;;;;26.02;6.82;;;;;;;;;;5265433;27;20053;-85
2021/08/15 15:27:30;;;;;;;27.77;7.80;;;;;;;;;;5267670;27;20018;-85
2021/08/15 15:29:59;;;;;;;21.05;6.80;;;;;;;;;;5258102;27;20067;-85
2021/08/15 15:32:27;;;;;;;30.62;7.47;;;;;;;;;;5266022;27;20019;-85
2021/08/15 15:34:57;;;;;;;26.35;6.85;;;;;;;;;;5267509;27;20065;-85
2021/08/15 15:37:26;;;;;;;21.40;6.37;;;;;;;;;;5244917;27;20268;-85
2021/08/15 15:39:55;;;;;;;26.62;6.90;;;;;;;;;;5265544;27;20049;-85
2021/08/15 15:42:44;;;;;;;25.92;7.32;;;;;;;;;;5265991;27;20321;-85
2021/08/15 15:45:12;;;;;;;27.87;6.50;;;;;;;;;;5265533;27;20478;-85
2021/08/15 15:47:41;;;;;;;30.08;7.60;;;;;;;;;;5263632;27;20050;-84
2021/08/15 15:50:10;;;;;;;20.62;6.75;;;;;;;;;;5262959;27;20030;-85
2021/08/15 15:52:39;;;;;;;22.83;6.75;;;;;;;;;;5264927;27;20462;-84
2021/08/15 15:55:07;;;;;;;23.83;6.50;;;;;;;;;;5265201;27;20021;-85
2021/08/15 15:57:36;;;;;;;24.08;6.82;;;;;;;;;;5261470;27;20501;-84
2021/08/15 16:00:05;;;;;;;26.10;7.03;;;;;;;;;;5266819;27;20013;-85
2021/08/15 16:02:38;;;;;;;22.25;6.30;;;;;;;;;;5268888;27;20013;-85
2021/08/15 16:05:08;;;;;;;26.73;7.22;;;;;;;;;;5270759;27;20871;-84
2021/08/15 16:07:37;;;;;;;18.33;6.12;;;;;;;;;;5268926;27;20084;-85
2021/08/15 16:10:06;;;;;;;20.73;5.82;;;;;;;;;;5260725;27;20029;-85
2021/08/15 16:12:35;;;;;;;28.02;7.32;;;;;;;;;;5266943;27;20034;-86
2021/08/15 16:15:03;;;;;;;27.42;7.70;;;;;;;;;;5230956;27;20392;-85
2021/08/15 16:17:32;;;;;;;35.33;7.50;;;;;;;;;;5264862;27;20475;-85
2021/08/15 16:20:01;;;;;;;26.73;7.03;;;;;;;;;;5266584;27;20030;-85
2021/08/15 16:22:29;;;;;;;23.35;7.20;;;;;;;;;;5246944;27;20396;-85
2021/08/15 16:25:00;;;;;;;23.48;6.85;;;;;;;;;;5267190;27;20093;-85
2021/08/15 16:27:29;;;;;;;24.05;6.72;;;;;;;;;;5247576;27;20407;-85
2021/08/15 16:29:57;;;;;;;26.65;6.10;;;;;;;;;;5267125;27;20029;-86
2021/08/15 16:32:26;;;;;;;24.40;7.20;;;;;;;;;;5266580;27;20044;-85
2021/08/15 16:34:54;;;;;;;24.63;7.22;;;;;;;;;;5265959;27;20103;-86
2021/08/15 16:37:22;;;;;;;23.42;6.22;;;;;;;;;;5266716;27;20022;-85
2021/08/15 16:39:52;;;;;;;22.83;7.10;;;;;;;;;;5268709;27;20052;-86
2021/08/15 16:42:20;;;;;;;24.45;6.95;;;;;;;;;;5265799;27;20025;-86
2021/08/15 16:44:49;;;;;;;25.62;6.78;;;;;;;;;;5268844;27;20013;-86
2021/08/15 16:47:18;;;;;;;34.25;7.53;;;;;;;;;;5266556;27;20038;-85
2021/08/15 16:49:46;;;;;;;27.73;7.03;;;;;;;;;;5265940;27;20056;-85
2021/08/15 16:52:14;;;;;;;23.50;6.57;;;;;;;;;;5267354;27;20021;-85
2021/08/15 16:54:43;;;;;;;22.75;6.10;;;;;;;;;;5268381;27;20355;-84
2021/08/15 16:57:11;;;;;;;24.05;7.22;;;;;;;;;;5268061;27;20018;-85
2021/08/15 16:59:40;;;;;;;26.15;6.80;;;;;;;;;;5267894;27;20072;-84
2021/08/15 17:02:09;;;;;;;22.37;6.80;;;;;;;;;;5249389;27;20286;-85
2021/08/15 17:04:37;;;;;;;23.52;6.30;;;;;;;;;;5268375;27;20452;-84
2021/08/15 17:07:06;;;;;;;25.88;6.75;;;;;;;;;;5267939;27;20372;-84
2021/08/15 17:09:35;;;;;;;28.80;6.93;;;;;;;;;;5265643;27;20076;-84
2021/08/15 17:12:04;;;;;;;24.05;6.60;;;;;;;;;;5265891;27;20047;-84
2021/08/15 17:14:32;;;;;;;31.17;7.15;;;;;;;;;;5267363;27;20085;-84
2021/08/15 17:17:02;;;;;;;28.50;7.03;;;;;;;;;;5266114;27;20044;-84
2021/08/15 17:19:30;;;;;;;24.45;7.03;;;;;;;;;;5266329;27;20025;-85
2021/08/15 17:21:59;;;;;;;32.22;7.25;;;;;;;;;;5266833;27;20056;-85
2021/08/15 17:24:27;;;;;;;24.73;6.18;;;;;;;;;;5267762;27;20057;-84
2021/08/15 17:26:55;;;;;;;31.80;7.25;;;;;;;;;;5265460;27;20100;-85
2021/08/15 17:29:24;;;;;;;33.88;8.18;;;;;;;;;;5268006;27;20045;-84
2021/08/15 17:31:52;;;;;;;29.27;7.35;;;;;;;;;;5248208;27;20033;-84
2021/08/15 17:34:21;;;;;;;31.73;7.65;;;;;;;;;;5242718;27;20498;-85
2021/08/15 17:36:49;;;;;;;25.65;7.28;;;;;;;;;;5242017;27;20401;-85
2021/08/15 17:39:19;;;;;;;28.23;7.37;;;;;;;;;;5246039;27;20849;-84
2021/08/15 17:41:47;;;;;;;33.58;6.85;;;;;;;;;;5245499;27;20025;-84
2021/08/15 17:44:15;;;;;;;22.95;6.78;;;;;;;;;;5245537;27;20045;-84
2021/08/15 17:46:44;;;;;;;24.58;8.10;;;;;;;;;;5244406;27;20030;-84
2021/08/15 17:49:13;;;;;;;30.02;8.20;;;;;;;;;;5247837;27;20022;-84
2021/08/15 17:51:42;;;;;;;30.55;9.23;;;;;;;;;;5244130;27;20533;-84
2021/08/15 17:54:11;;;;;;;31.67;11.95;;;;;;;;;;5244197;27;20049;-84
2021/08/15 17:56:39;;;;;;;28.20;11.90;;;;;;;;;;5245006;27;20030;-84
2021/08/15 17:59:08;;;;;;;26.17;9.35;;;;;;;;;;5249589;27;20018;-84
2021/08/15 18:01:37;;;;;;;28.08;11.65;;;;;;;;;;5246054;27;20777;-84
2021/08/15 18:04:06;;;;;;;34.65;19.95;;;;;;;;;;5240721;27;20026;-84
2021/08/15 18:06:34;;;;;;;57.60;51.97;;;;;;;;;;5245373;27;20069;-85
2021/08/15 18:09:03;;;;;;;93.57;86.63;;;;;;;;;;5244453;27;20052;-84
2021/08/15 18:11:32;;;;;;;67.70;62.10;;;;;;;;;;5243975;27;20068;-85
2021/08/15 18:14:00;;;;;;;131.05;122.93;;;;;;;;;;5240722;27;20042;-84
2021/08/15 18:16:29;;;;;;;181.85;170.60;;;;;;;;;;5243628;27;20068;-84
2021/08/15 18:18:58;;;;;;;114.00;106.25;;;;;;;;;;5246701;27;20030;-84
2021/08/15 18:21:26;;;;;;;117.68;109.63;;;;;;;;;;5246690;27;20087;-84
2021/08/15 18:23:55;;;;;;;162.05;151.40;;;;;;;;;;5239826;27;20799;-85
2021/08/15 18:26:24;;;;;;;112.37;103.78;;;;;;;;;;5244436;27;20455;-84
2021/08/15 18:28:56;;;;;;;84.97;76.55;;;;;;;;;;5243428;27;20556;-84
2021/08/15 18:31:25;;;;;;;95.12;84.78;;;;;;;;;;5244711;27;20033;-85
2021/08/15 18:33:53;;;;;;;91.57;82.18;;;;;;;;;;5242658;27;20026;-84
2021/08/15 18:36:22;;;;;;;119.00;107.20;;;;;;;;;;5268709;27;20028;-85
2021/08/15 18:38:50;;;;;;;102.28;92.05;;;;;;;;;;5268969;27;20072;-85
2021/08/15 18:41:19;;;;;;;102.47;91.63;;;;;;;;;;5267581;27;20430;-84
2021/08/15 18:43:47;;;;;;;86.87;77.75;;;;;;;;;;5264914;27;20060;-84
2021/08/15 18:46:16;;;;;;;107.72;91.68;;;;;;;;;;5269682;27;20030;-85
2021/08/15 18:48:44;;;;;;;125.60;104.00;;;;;;;;;;5268721;27;20042;-85
2021/08/15 18:51:13;;;;;;;126.03;102.62;;;;;;;;;;5266210;27;20065;-85
2021/08/15 18:53:41;;;;;;;136.20;110.05;;;;;;;;;;5265682;27;20373;-84
2021/08/15 18:56:10;;;;;;;148.10;109.20;;;;;;;;;;5267840;27;20442;-84
2021/08/15 18:58:38;;;;;;;159.60;118.18;;;;;;;;;;5267582;27;20026;-84
2021/08/15 19:01:07;;;;;;;178.12;117.47;;;;;;;;;;5266848;27;20034;-85
2021/08/15 19:03:35;;;;;;;189.23;124.05;;;;;;;;;;5248942;27;20061;-84
2021/08/15 19:06:03;;;;;;;190.20;115.00;;;;;;;;;;5265071;27;20340;-84
2021/08/15 19:08:32;;;;;;;196.02;115.62;;;;;;;;;;5264805;27;20026;-84
2021/08/15 19:11:00;;;;;;;161.20;114.28;;;;;;;;;;5262642;27;20059;-84
2021/08/15 19:13:30;;;;;;;162.25;112.57;;;;;;;;;;5268219;27;20037;-84
2021/08/15 19:15:59;;;;;;;178.07;115.07;;;;;;;;;;5267651;27;20380;-84
2021/08/15 19:18:27;;;;;;;168.77;113.32;;;;;;;;;;5267900;27;20055;-83
2021/08/15 19:20:55;;;;;;;161.35;113.55;;;;;;;;;;5247605;27;20055;-84
2021/08/15 19:23:44;;;;;;;196.15;112.47;;;;;;;;;;5265235;27;20045;-84
2021/08/15 19:26:13;;;;;;;214.63;116.80;;;;;;;;;;5247709;27;20337;-84
2021/08/15 19:28:41;;;;;;;209.60;113.30;;;;;;;;;;5264012;27;20060;-84
2021/08/15 19:31:10;;;;;;;211.50;114.75;;;;;;;;;;5266207;27;20061;-85
2021/08/15 19:33:39;;;;;;;206.15;110.03;;;;;;;;;;5266870;27;20079;-84
2021/08/15 19:36:07;;;;;;;221.10;122.05;;;;;;;;;;5261560;27;20042;-84
2021/08/15 19:38:36;;;;;;;218.25;116.12;;;;;;;;;;5260382;27;20041;-84
2021/08/15 19:41:04;;;;;;;206.13;109.22;;;;;;;;;;5264617;27;20259;-85
2021/08/15 19:43:33;;;;;;;208.07;113.72;;;;;;;;;;5263604;27;20049;-85
2021/08/15 19:46:02;;;;;;;215.10;113.57;;;;;;;;;;5262850;27;20033;-85
2021/08/15 19:48:30;;;;;;;185.00;110.63;;;;;;;;;;5245462;27;20330;-85
2021/08/15 19:50:58;;;;;;;173.85;108.07;;;;;;;;;;5265980;27;20036;-84
2021/08/15 19:53:27;;;;;;;186.48;112.88;;;;;;;;;;5245067;27;20511;-85
2021/08/15 19:55:56;;;;;;;171.60;107.70;;;;;;;;;;5265922;27;20022;-85
2021/08/15 19:58:24;;;;;;;249.48;200.57;;;;;;;;;;5261720;27;20037;-86
2021/08/15 20:00:53;;;;;;;257.23;202.80;;;;;;;;;;5246270;27;20443;-85
2021/08/15 20:03:22;;;;;;;209.55;162.80;;;;;;;;;;5241058;27;20481;-85